sensor_id;sensor_type;location;lat;lon;timestamp;temperature;humidity
6496;DHT22;3281;47.658;9.166;2023-07-31T00:02:24;16.90;1.00
6496;DHT22;3281;47.658;9.166;2023-07-31T00:04:51;16.80;1.00
6496;DHT22;3281;47.658;9.166;2023-07-31T00:07:19;16.70;1.00
6496;DHT22;3281;47.658;9.166;2023-07-31T00:09:45;16.70;1.00
6496;DHT22;3281;47.658;9.166;2023-07-31T00:12:12;16.70;1.00
6496;DHT22;3281;47.658;9.166;2023-07-31T00:14:39;16.60;1.00
6496;DHT22;3281;47.658;9.166;2023-07-31T00:17:05;16.70;1.00
6496;DHT22;3281;47.658;9.166;2023-07-31T00:19:32;16.60;1.00
6496;DHT22;3281;47.658;9.166;2023-07-31T00:21:59;16.70;1.00
6496;DHT22;3281;47.658;9.166;2023-07-31T00:24:27;16.60;1.00
6496;DHT22;3281;47.658;9.166;2023-07-31T00:26:54;16.60;1.00
6496;DHT22;3281;47.658;9.166;2023-07-31T00:29:20;16.50;1.00
6496;DHT22;3281;47.658;9.166;2023-07-31T00:31:47;16.50;1.00
6496;DHT22;3281;47.658;9.166;2023-07-31T00:34:14;16.50;1.00
6496;DHT22;3281;47.658;9.166;2023-07-31T00:36:40;16.60;1.00
6496;DHT22;3281;47.658;9.166;2023-07-31T00:39:07;16.70;1.00
6496;DHT22;3281;47.658;9.166;2023-07-31T00:41:35;16.80;1.00
6496;DHT22;3281;47.658;9.166;2023-07-31T00:44:02;16.80;1.00
6496;DHT22;3281;47.658;9.166;2023-07-31T00:46:28;16.80;1.00
6496;DHT22;3281;47.658;9.166;2023-07-31T00:48:55;17.00;1.00
6496;DHT22;3281;47.658;9.166;2023-07-31T00:51:22;17.00;1.00
6496;DHT22;3281;47.658;9.166;2023-07-31T00:53:49;17.10;1.00
6496;DHT22;3281;47.658;9.166;2023-07-31T00:56:16;17.20;1.00
6496;DHT22;3281;47.658;9.166;2023-07-31T00:58:44;17.10;1.00
6496;DHT22;3281;47.658;9.166;2023-07-31T01:01:10;17.20;1.00
6496;DHT22;3281;47.658;9.166;2023-07-31T01:03:37;17.10;1.00
6496;DHT22;3281;47.658;9.166;2023-07-31T01:06:13;17.20;1.00
6496;DHT22;3281;47.658;9.166;2023-07-31T01:08:42;17.20;1.00
6496;DHT22;3281;47.658;9.166;2023-07-31T01:11:17;17.20;1.00
6496;DHT22;3281;47.658;9.166;2023-07-31T01:13:46;17.30;1.00
6496;DHT22;3281;47.658;9.166;2023-07-31T01:16:13;17.20;1.00
6496;DHT22;3281;47.658;9.166;2023-07-31T01:18:40;17.20;1.00
6496;DHT22;3281;47.658;9.166;2023-07-31T01:21:21;17.20;1.00
6496;DHT22;3281;47.658;9.166;2023-07-31T01:24:08;17.10;1.00
6496;DHT22;3281;47.658;9.166;2023-07-31T01:26:40;16.90;1.00
6496;DHT22;3281;47.658;9.166;2023-07-31T01:29:13;16.80;1.00
6496;DHT22;3281;47.658;9.166;2023-07-31T01:31:47;16.80;1.00
6496;DHT22;3281;47.658;9.166;2023-07-31T01:34:17;16.70;1.00
6496;DHT22;3281;47.658;9.166;2023-07-31T01:36:44;16.70;1.00
6496;DHT22;3281;47.658;9.166;2023-07-31T01:39:11;16.60;1.00
6496;DHT22;3281;47.658;9.166;2023-07-31T01:41:39;16.60;1.00
6496;DHT22;3281;47.658;9.166;2023-07-31T01:44:06;16.60;1.00
6496;DHT22;3281;47.658;9.166;2023-07-31T01:46:33;16.60;1.00
6496;DHT22;3281;47.658;9.166;2023-07-31T01:48:59;16.50;1.00
6496;DHT22;3281;47.658;9.166;2023-07-31T01:51:26;16.50;1.00
6496;DHT22;3281;47.658;9.166;2023-07-31T01:53:53;16.50;1.00
6496;DHT22;3281;47.658;9.166;2023-07-31T01:56:19;16.50;1.00
6496;DHT22;3281;47.658;9.166;2023-07-31T01:58:47;16.50;1.00
6496;DHT22;3281;47.658;9.166;2023-07-31T02:01:14;16.40;1.00
6496;DHT22;3281;47.658;9.166;2023-07-31T02:03:41;16.40;1.00
6496;DHT22;3281;47.658;9.166;2023-07-31T02:06:08;16.30;1.00
6496;DHT22;3281;47.658;9.166;2023-07-31T02:08:34;16.30;1.00
6496;DHT22;3281;47.658;9.166;2023-07-31T02:11:01;16.30;1.00
6496;DHT22;3281;47.658;9.166;2023-07-31T02:13:28;16.30;1.00
6496;DHT22;3281;47.658;9.166;2023-07-31T02:15:56;16.30;1.00
6496;DHT22;3281;47.658;9.166;2023-07-31T02:18:23;16.40;1.00
6496;DHT22;3281;47.658;9.166;2023-07-31T02:20:50;16.40;1.00
6496;DHT22;3281;47.658;9.166;2023-07-31T02:23:17;16.40;1.00
6496;DHT22;3281;47.658;9.166;2023-07-31T02:25:44;16.40;1.00
6496;DHT22;3281;47.658;9.166;2023-07-31T02:28:11;16.30;1.00
6496;DHT22;3281;47.658;9.166;2023-07-31T02:30:38;16.40;1.00
6496;DHT22;3281;47.658;9.166;2023-07-31T02:33:06;16.20;1.00
6496;DHT22;3281;47.658;9.166;2023-07-31T02:35:33;16.20;1.00
6496;DHT22;3281;47.658;9.166;2023-07-31T02:37:59;16.20;1.00
6496;DHT22;3281;47.658;9.166;2023-07-31T02:40:26;16.10;1.00
6496;DHT22;3281;47.658;9.166;2023-07-31T02:42:53;16.10;1.00
6496;DHT22;3281;47.658;9.166;2023-07-31T02:45:19;16.10;1.00
6496;DHT22;3281;47.658;9.166;2023-07-31T02:47:46;16.00;1.00
6496;DHT22;3281;47.658;9.166;2023-07-31T02:50:14;16.00;1.00
6496;DHT22;3281;47.658;9.166;2023-07-31T02:52:41;16.00;1.00
6496;DHT22;3281;47.658;9.166;2023-07-31T02:55:08;16.00;1.00
6496;DHT22;3281;47.658;9.166;2023-07-31T02:57:34;16.00;1.00
6496;DHT22;3281;47.658;9.166;2023-07-31T03:00:01;16.00;1.00
6496;DHT22;3281;47.658;9.166;2023-07-31T03:02:31;16.00;1.00
6496;DHT22;3281;47.658;9.166;2023-07-31T03:04:57;16.10;1.00
6496;DHT22;3281;47.658;9.166;2023-07-31T03:07:25;16.20;1.00
6496;DHT22;3281;47.658;9.166;2023-07-31T03:09:52;16.20;1.00
6496;DHT22;3281;47.658;9.166;2023-07-31T03:12:19;16.20;1.00
6496;DHT22;3281;47.658;9.166;2023-07-31T03:14:46;16.30;1.00
6496;DHT22;3281;47.658;9.166;2023-07-31T03:17:12;16.20;1.00
6496;DHT22;3281;47.658;9.166;2023-07-31T03:19:39;16.10;1.00
6496;DHT22;3281;47.658;9.166;2023-07-31T03:22:06;16.20;1.00
6496;DHT22;3281;47.658;9.166;2023-07-31T03:24:34;16.10;1.00
6496;DHT22;3281;47.658;9.166;2023-07-31T03:27:00;16.10;1.00
6496;DHT22;3281;47.658;9.166;2023-07-31T03:29:27;16.10;1.00
6496;DHT22;3281;47.658;9.166;2023-07-31T03:31:54;16.10;1.00
6496;DHT22;3281;47.658;9.166;2023-07-31T03:34:20;16.20;1.00
6496;DHT22;3281;47.658;9.166;2023-07-31T03:36:47;16.20;1.00
6496;DHT22;3281;47.658;9.166;2023-07-31T03:39:14;16.30;1.00
6496;DHT22;3281;47.658;9.166;2023-07-31T03:41:42;16.30;1.00
6496;DHT22;3281;47.658;9.166;2023-07-31T03:44:08;16.30;1.00
6496;DHT22;3281;47.658;9.166;2023-07-31T03:46:35;16.30;1.00
6496;DHT22;3281;47.658;9.166;2023-07-31T03:49:02;16.30;1.00
6496;DHT22;3281;47.658;9.166;2023-07-31T03:51:29;16.40;1.00
6496;DHT22;3281;47.658;9.166;2023-07-31T03:53:55;16.40;1.00
6496;DHT22;3281;47.658;9.166;2023-07-31T03:56:22;16.40;1.00
6496;DHT22;3281;47.658;9.166;2023-07-31T03:58:50;16.40;1.00
6496;DHT22;3281;47.658;9.166;2023-07-31T04:01:17;16.40;1.00
6496;DHT22;3281;47.658;9.166;2023-07-31T04:03:44;16.40;1.00
6496;DHT22;3281;47.658;9.166;2023-07-31T04:06:11;16.50;1.00
6496;DHT22;3281;47.658;9.166;2023-07-31T04:08:38;16.50;1.00
6496;DHT22;3281;47.658;9.166;2023-07-31T04:11:04;16.60;1.00
6496;DHT22;3281;47.658;9.166;2023-07-31T04:13:31;16.60;1.00
6496;DHT22;3281;47.658;9.166;2023-07-31T04:16:00;16.70;1.00
6496;DHT22;3281;47.658;9.166;2023-07-31T04:18:27;16.70;1.00
6496;DHT22;3281;47.658;9.166;2023-07-31T04:20:53;16.70;1.00
6496;DHT22;3281;47.658;9.166;2023-07-31T04:23:20;16.90;1.00
6496;DHT22;3281;47.658;9.166;2023-07-31T04:25:47;17.00;1.00
6496;DHT22;3281;47.658;9.166;2023-07-31T04:28:14;17.00;1.00
6496;DHT22;3281;47.658;9.166;2023-07-31T04:30:41;17.00;1.00
6496;DHT22;3281;47.658;9.166;2023-07-31T04:33:09;17.00;1.00
6496;DHT22;3281;47.658;9.166;2023-07-31T04:35:35;17.00;1.00
6496;DHT22;3281;47.658;9.166;2023-07-31T04:38:02;17.00;1.00
6496;DHT22;3281;47.658;9.166;2023-07-31T04:40:29;17.00;1.00
6496;DHT22;3281;47.658;9.166;2023-07-31T04:42:55;17.10;1.00
6496;DHT22;3281;47.658;9.166;2023-07-31T04:45:22;17.10;1.00
6496;DHT22;3281;47.658;9.166;2023-07-31T04:47:49;17.10;1.00
6496;DHT22;3281;47.658;9.166;2023-07-31T04:50:17;17.10;1.00
6496;DHT22;3281;47.658;9.166;2023-07-31T04:52:43;17.10;1.00
6496;DHT22;3281;47.658;9.166;2023-07-31T04:55:10;17.20;1.00
6496;DHT22;3281;47.658;9.166;2023-07-31T04:57:37;17.20;1.00
6496;DHT22;3281;47.658;9.166;2023-07-31T05:00:04;17.30;1.00
6496;DHT22;3281;47.658;9.166;2023-07-31T05:02:31;17.30;1.00
6496;DHT22;3281;47.658;9.166;2023-07-31T05:04:57;17.40;1.00
6496;DHT22;3281;47.658;9.166;2023-07-31T05:07:25;17.50;1.00
6496;DHT22;3281;47.658;9.166;2023-07-31T05:09:52;17.40;1.00
6496;DHT22;3281;47.658;9.166;2023-07-31T05:12:19;17.50;1.00
6496;DHT22;3281;47.658;9.166;2023-07-31T05:14:45;17.50;1.00
6496;DHT22;3281;47.658;9.166;2023-07-31T05:17:12;17.50;1.00
6496;DHT22;3281;47.658;9.166;2023-07-31T05:19:39;17.50;1.00
6496;DHT22;3281;47.658;9.166;2023-07-31T05:22:05;17.50;1.00
6496;DHT22;3281;47.658;9.166;2023-07-31T05:24:33;17.50;1.00
6496;DHT22;3281;47.658;9.166;2023-07-31T05:27:00;17.60;1.00
6496;DHT22;3281;47.658;9.166;2023-07-31T05:29:27;17.50;1.00
6496;DHT22;3281;47.658;9.166;2023-07-31T05:31:53;17.60;1.00
6496;DHT22;3281;47.658;9.166;2023-07-31T05:34:20;17.60;1.00
6496;DHT22;3281;47.658;9.166;2023-07-31T05:36:47;17.60;1.00
6496;DHT22;3281;47.658;9.166;2023-07-31T05:39:13;17.60;1.00
6496;DHT22;3281;47.658;9.166;2023-07-31T05:41:41;17.60;1.00
6496;DHT22;3281;47.658;9.166;2023-07-31T05:44:08;17.60;1.00
6496;DHT22;3281;47.658;9.166;2023-07-31T05:46:35;17.60;1.00
6496;DHT22;3281;47.658;9.166;2023-07-31T05:49:01;17.60;1.00
6496;DHT22;3281;47.658;9.166;2023-07-31T05:51:28;17.50;1.00
6496;DHT22;3281;47.658;9.166;2023-07-31T05:53:55;17.50;1.00
6496;DHT22;3281;47.658;9.166;2023-07-31T05:56:21;17.50;1.00
6496;DHT22;3281;47.658;9.166;2023-07-31T05:58:49;17.50;1.00
6496;DHT22;3281;47.658;9.166;2023-07-31T06:01:16;17.50;1.00
6496;DHT22;3281;47.658;9.166;2023-07-31T06:03:43;17.50;1.00
6496;DHT22;3281;47.658;9.166;2023-07-31T06:06:10;17.50;1.00
6496;DHT22;3281;47.658;9.166;2023-07-31T06:08:40;17.50;1.00
6496;DHT22;3281;47.658;9.166;2023-07-31T06:11:06;17.50;1.00
6496;DHT22;3281;47.658;9.166;2023-07-31T06:13:34;17.50;1.00
6496;DHT22;3281;47.658;9.166;2023-07-31T06:16:02;17.50;1.00
6496;DHT22;3281;47.658;9.166;2023-07-31T06:18:30;17.50;1.00
6496;DHT22;3281;47.658;9.166;2023-07-31T06:20:57;17.50;1.00
6496;DHT22;3281;47.658;9.166;2023-07-31T06:23:24;17.60;1.00
6496;DHT22;3281;47.658;9.166;2023-07-31T06:25:51;17.60;1.00
6496;DHT22;3281;47.658;9.166;2023-07-31T06:28:17;17.50;1.00
6496;DHT22;3281;47.658;9.166;2023-07-31T06:30:44;17.50;1.00
6496;DHT22;3281;47.658;9.166;2023-07-31T06:33:12;17.60;1.00
6496;DHT22;3281;47.658;9.166;2023-07-31T06:35:39;17.60;1.00
6496;DHT22;3281;47.658;9.166;2023-07-31T06:38:05;17.70;1.00
6496;DHT22;3281;47.658;9.166;2023-07-31T06:40:32;17.70;1.00
6496;DHT22;3281;47.658;9.166;2023-07-31T06:42:59;17.70;1.00
6496;DHT22;3281;47.658;9.166;2023-07-31T06:45:31;17.80;1.00
6496;DHT22;3281;47.658;9.166;2023-07-31T06:47:58;17.80;1.00
6496;DHT22;3281;47.658;9.166;2023-07-31T06:50:28;17.90;1.00
6496;DHT22;3281;47.658;9.166;2023-07-31T06:52:55;17.90;1.00
6496;DHT22;3281;47.658;9.166;2023-07-31T06:55:22;18.00;1.00
6496;DHT22;3281;47.658;9.166;2023-07-31T06:57:51;18.00;1.00
6496;DHT22;3281;47.658;9.166;2023-07-31T07:00:19;18.00;1.00
6496;DHT22;3281;47.658;9.166;2023-07-31T07:02:46;18.00;1.00
6496;DHT22;3281;47.658;9.166;2023-07-31T07:05:14;18.00;1.00
6496;DHT22;3281;47.658;9.166;2023-07-31T07:07:42;18.10;1.00
6496;DHT22;3281;47.658;9.166;2023-07-31T07:10:09;18.10;1.00
6496;DHT22;3281;47.658;9.166;2023-07-31T07:12:36;18.10;1.00
6496;DHT22;3281;47.658;9.166;2023-07-31T07:15:03;18.10;1.00
6496;DHT22;3281;47.658;9.166;2023-07-31T07:17:30;18.20;1.00
6496;DHT22;3281;47.658;9.166;2023-07-31T07:19:57;18.40;1.00
6496;DHT22;3281;47.658;9.166;2023-07-31T07:22:24;18.50;1.00
6496;DHT22;3281;47.658;9.166;2023-07-31T07:24:53;18.60;1.00
6496;DHT22;3281;47.658;9.166;2023-07-31T07:27:20;18.50;1.00
6496;DHT22;3281;47.658;9.166;2023-07-31T07:29:47;18.60;1.00
6496;DHT22;3281;47.658;9.166;2023-07-31T07:32:13;18.50;1.00
6496;DHT22;3281;47.658;9.166;2023-07-31T07:34:40;18.60;1.00
6496;DHT22;3281;47.658;9.166;2023-07-31T07:37:07;18.50;1.00
6496;DHT22;3281;47.658;9.166;2023-07-31T07:39:34;18.50;1.00
6496;DHT22;3281;47.658;9.166;2023-07-31T07:42:02;18.60;1.00
6496;DHT22;3281;47.658;9.166;2023-07-31T07:44:29;18.70;1.00
6496;DHT22;3281;47.658;9.166;2023-07-31T07:46:55;18.70;1.00
6496;DHT22;3281;47.658;9.166;2023-07-31T07:49:22;18.70;1.00
6496;DHT22;3281;47.658;9.166;2023-07-31T07:51:49;18.70;1.00
6496;DHT22;3281;47.658;9.166;2023-07-31T07:54:16;18.80;1.00
6496;DHT22;3281;47.658;9.166;2023-07-31T07:56:43;18.80;1.00
6496;DHT22;3281;47.658;9.166;2023-07-31T07:59:11;18.80;1.00
6496;DHT22;3281;47.658;9.166;2023-07-31T08:01:37;18.80;1.00
6496;DHT22;3281;47.658;9.166;2023-07-31T08:04:04;18.70;1.00
6496;DHT22;3281;47.658;9.166;2023-07-31T08:06:31;18.90;1.00
6496;DHT22;3281;47.658;9.166;2023-07-31T08:08:58;18.90;1.00
6496;DHT22;3281;47.658;9.166;2023-07-31T08:11:25;18.90;1.00
6496;DHT22;3281;47.658;9.166;2023-07-31T08:13:52;19.00;1.00
6496;DHT22;3281;47.658;9.166;2023-07-31T08:16:20;19.00;1.00
6496;DHT22;3281;47.658;9.166;2023-07-31T08:18:46;19.00;1.00
6496;DHT22;3281;47.658;9.166;2023-07-31T08:21:14;19.10;1.00
6496;DHT22;3281;47.658;9.166;2023-07-31T08:23:41;19.20;1.00
6496;DHT22;3281;47.658;9.166;2023-07-31T08:26:08;19.40;1.00
6496;DHT22;3281;47.658;9.166;2023-07-31T08:28:34;19.50;1.00
6496;DHT22;3281;47.658;9.166;2023-07-31T08:31:02;19.80;1.00
6496;DHT22;3281;47.658;9.166;2023-07-31T08:33:30;19.80;1.00
6496;DHT22;3281;47.658;9.166;2023-07-31T08:35:57;19.70;1.00
6496;DHT22;3281;47.658;9.166;2023-07-31T08:38:25;19.60;1.00
6496;DHT22;3281;47.658;9.166;2023-07-31T08:40:54;19.60;1.00
6496;DHT22;3281;47.658;9.166;2023-07-31T08:43:23;19.70;1.00
6496;DHT22;3281;47.658;9.166;2023-07-31T08:45:51;19.70;1.00
6496;DHT22;3281;47.658;9.166;2023-07-31T08:48:21;19.80;1.00
6496;DHT22;3281;47.658;9.166;2023-07-31T08:50:50;19.90;1.00
6496;DHT22;3281;47.658;9.166;2023-07-31T08:53:17;19.90;1.00
6496;DHT22;3281;47.658;9.166;2023-07-31T08:55:44;20.00;1.00
6496;DHT22;3281;47.658;9.166;2023-07-31T08:58:13;20.00;1.00
6496;DHT22;3281;47.658;9.166;2023-07-31T09:00:41;20.00;1.00
6496;DHT22;3281;47.658;9.166;2023-07-31T09:03:13;20.10;1.00
6496;DHT22;3281;47.658;9.166;2023-07-31T09:05:42;20.00;1.00
6496;DHT22;3281;47.658;9.166;2023-07-31T09:08:11;20.00;1.00
6496;DHT22;3281;47.658;9.166;2023-07-31T09:10:41;19.90;1.00
6496;DHT22;3281;47.658;9.166;2023-07-31T09:13:08;19.90;1.00
6496;DHT22;3281;47.658;9.166;2023-07-31T09:15:35;20.00;1.00
6496;DHT22;3281;47.658;9.166;2023-07-31T09:18:04;20.10;1.00
6496;DHT22;3281;47.658;9.166;2023-07-31T09:20:31;20.20;1.00
6496;DHT22;3281;47.658;9.166;2023-07-31T09:23:05;20.20;1.00
6496;DHT22;3281;47.658;9.166;2023-07-31T09:25:35;20.30;1.00
6496;DHT22;3281;47.658;9.166;2023-07-31T09:28:03;20.40;1.00
6496;DHT22;3281;47.658;9.166;2023-07-31T09:30:30;20.50;1.00
6496;DHT22;3281;47.658;9.166;2023-07-31T09:33:01;20.60;1.00
6496;DHT22;3281;47.658;9.166;2023-07-31T09:35:29;20.80;1.00
6496;DHT22;3281;47.658;9.166;2023-07-31T09:37:58;20.90;1.00
6496;DHT22;3281;47.658;9.166;2023-07-31T09:40:29;21.00;1.00
6496;DHT22;3281;47.658;9.166;2023-07-31T09:42:59;21.10;1.00
6496;DHT22;3281;47.658;9.166;2023-07-31T09:45:26;21.30;1.00
6496;DHT22;3281;47.658;9.166;2023-07-31T09:47:53;21.70;1.00
6496;DHT22;3281;47.658;9.166;2023-07-31T09:50:21;21.90;1.00
6496;DHT22;3281;47.658;9.166;2023-07-31T09:52:48;22.40;1.00
6496;DHT22;3281;47.658;9.166;2023-07-31T09:55:15;22.90;1.00
6496;DHT22;3281;47.658;9.166;2023-07-31T09:57:45;23.00;1.00
6496;DHT22;3281;47.658;9.166;2023-07-31T10:00:16;23.40;1.00
6496;DHT22;3281;47.658;9.166;2023-07-31T10:02:45;24.00;1.00
6496;DHT22;3281;47.658;9.166;2023-07-31T10:05:13;24.30;1.00
6496;DHT22;3281;47.658;9.166;2023-07-31T10:07:42;25.20;1.00
6496;DHT22;3281;47.658;9.166;2023-07-31T10:10:10;25.50;1.00
6496;DHT22;3281;47.658;9.166;2023-07-31T10:12:37;25.70;1.00
6496;DHT22;3281;47.658;9.166;2023-07-31T10:15:05;25.90;1.00
6496;DHT22;3281;47.658;9.166;2023-07-31T10:17:35;26.30;1.00
6496;DHT22;3281;47.658;9.166;2023-07-31T10:20:02;26.40;1.00
6496;DHT22;3281;47.658;9.166;2023-07-31T10:22:30;26.60;1.00
6496;DHT22;3281;47.658;9.166;2023-07-31T10:24:58;27.10;1.00
6496;DHT22;3281;47.658;9.166;2023-07-31T10:27:25;27.20;1.00
6496;DHT22;3281;47.658;9.166;2023-07-31T10:29:53;26.90;1.00
6496;DHT22;3281;47.658;9.166;2023-07-31T10:32:21;27.50;1.00
6496;DHT22;3281;47.658;9.166;2023-07-31T10:34:50;27.50;1.00
6496;DHT22;3281;47.658;9.166;2023-07-31T10:37:24;27.10;1.00
6496;DHT22;3281;47.658;9.166;2023-07-31T10:39:56;27.20;1.00
6496;DHT22;3281;47.658;9.166;2023-07-31T10:42:31;26.90;1.00
6496;DHT22;3281;47.658;9.166;2023-07-31T10:44:59;26.80;1.00
6496;DHT22;3281;47.658;9.166;2023-07-31T10:47:26;27.00;1.00
6496;DHT22;3281;47.658;9.166;2023-07-31T10:50:11;27.50;1.00
6496;DHT22;3281;47.658;9.166;2023-07-31T10:52:38;27.60;1.00
6496;DHT22;3281;47.658;9.166;2023-07-31T10:55:25;27.30;1.00
6496;DHT22;3281;47.658;9.166;2023-07-31T10:57:53;27.50;1.00
6496;DHT22;3281;47.658;9.166;2023-07-31T11:00:21;28.10;1.00
6496;DHT22;3281;47.658;9.166;2023-07-31T11:02:59;27.70;1.00
6496;DHT22;3281;47.658;9.166;2023-07-31T11:05:47;27.50;1.00
6496;DHT22;3281;47.658;9.166;2023-07-31T11:08:16;26.60;1.00
6496;DHT22;3281;47.658;9.166;2023-07-31T11:10:44;26.90;1.00
6496;DHT22;3281;47.658;9.166;2023-07-31T11:13:11;26.60;1.00
6496;DHT22;3281;47.658;9.166;2023-07-31T11:15:38;25.30;1.00
6496;DHT22;3281;47.658;9.166;2023-07-31T11:18:05;24.70;1.00
6496;DHT22;3281;47.658;9.166;2023-07-31T11:20:34;24.20;1.00
6496;DHT22;3281;47.658;9.166;2023-07-31T11:23:04;23.60;1.00
6496;DHT22;3281;47.658;9.166;2023-07-31T11:25:32;23.40;1.00
6496;DHT22;3281;47.658;9.166;2023-07-31T11:28:03;23.40;1.00
6496;DHT22;3281;47.658;9.166;2023-07-31T11:30:29;23.20;1.00
6496;DHT22;3281;47.658;9.166;2023-07-31T11:32:56;23.10;1.00
6496;DHT22;3281;47.658;9.166;2023-07-31T11:35:23;23.00;1.00
6496;DHT22;3281;47.658;9.166;2023-07-31T11:37:49;22.70;1.00
6496;DHT22;3281;47.658;9.166;2023-07-31T11:40:18;22.60;1.00
6496;DHT22;3281;47.658;9.166;2023-07-31T11:42:45;22.60;1.00
6496;DHT22;3281;47.658;9.166;2023-07-31T11:45:12;22.60;1.00
6496;DHT22;3281;47.658;9.166;2023-07-31T11:47:38;22.50;1.00
6496;DHT22;3281;47.658;9.166;2023-07-31T11:50:07;22.40;1.00
6496;DHT22;3281;47.658;9.166;2023-07-31T11:52:38;22.40;1.00
6496;DHT22;3281;47.658;9.166;2023-07-31T11:55:07;22.40;1.00
6496;DHT22;3281;47.658;9.166;2023-07-31T11:57:37;22.30;1.00
6496;DHT22;3281;47.658;9.166;2023-07-31T12:00:06;22.30;1.00
6496;DHT22;3281;47.658;9.166;2023-07-31T12:02:34;22.30;1.00
6496;DHT22;3281;47.658;9.166;2023-07-31T12:05:01;22.30;1.00
6496;DHT22;3281;47.658;9.166;2023-07-31T12:07:43;22.50;1.00
6496;DHT22;3281;47.658;9.166;2023-07-31T12:10:10;22.60;1.00
6496;DHT22;3281;47.658;9.166;2023-07-31T12:12:38;22.60;1.00
6496;DHT22;3281;47.658;9.166;2023-07-31T12:15:14;22.50;1.00
6496;DHT22;3281;47.658;9.166;2023-07-31T12:17:41;22.50;1.00
6496;DHT22;3281;47.658;9.166;2023-07-31T12:20:09;22.40;1.00
6496;DHT22;3281;47.658;9.166;2023-07-31T12:22:35;22.30;1.00
6496;DHT22;3281;47.658;9.166;2023-07-31T12:25:02;22.30;1.00
6496;DHT22;3281;47.658;9.166;2023-07-31T12:27:33;22.30;1.00
6496;DHT22;3281;47.658;9.166;2023-07-31T12:30:01;22.20;1.00
6496;DHT22;3281;47.658;9.166;2023-07-31T12:32:30;22.30;1.00
6496;DHT22;3281;47.658;9.166;2023-07-31T12:34:59;22.30;1.00
6496;DHT22;3281;47.658;9.166;2023-07-31T12:37:26;22.50;1.00
6496;DHT22;3281;47.658;9.166;2023-07-31T12:39:53;22.80;1.00
6496;DHT22;3281;47.658;9.166;2023-07-31T12:42:20;23.10;1.00
6496;DHT22;3281;47.658;9.166;2023-07-31T12:44:46;23.00;1.00
6496;DHT22;3281;47.658;9.166;2023-07-31T12:47:14;22.90;1.00
6496;DHT22;3281;47.658;9.166;2023-07-31T12:49:41;22.80;1.00
6496;DHT22;3281;47.658;9.166;2023-07-31T12:52:08;22.80;1.00
6496;DHT22;3281;47.658;9.166;2023-07-31T12:54:34;22.90;1.00
6496;DHT22;3281;47.658;9.166;2023-07-31T12:57:01;22.90;1.00
6496;DHT22;3281;47.658;9.166;2023-07-31T12:59:28;22.90;1.00
6496;DHT22;3281;47.658;9.166;2023-07-31T13:01:55;23.00;1.00
6496;DHT22;3281;47.658;9.166;2023-07-31T13:04:23;23.10;1.00
6496;DHT22;3281;47.658;9.166;2023-07-31T13:06:49;23.40;1.00
6496;DHT22;3281;47.658;9.166;2023-07-31T13:09:16;23.40;1.00
6496;DHT22;3281;47.658;9.166;2023-07-31T13:11:43;23.70;1.00
6496;DHT22;3281;47.658;9.166;2023-07-31T13:14:09;23.80;1.00
6496;DHT22;3281;47.658;9.166;2023-07-31T13:16:36;23.80;1.00
6496;DHT22;3281;47.658;9.166;2023-07-31T13:19:03;23.60;1.00
6496;DHT22;3281;47.658;9.166;2023-07-31T13:21:31;23.50;1.00
6496;DHT22;3281;47.658;9.166;2023-07-31T13:24:01;23.30;1.00
6496;DHT22;3281;47.658;9.166;2023-07-31T13:26:28;23.10;1.00
6496;DHT22;3281;47.658;9.166;2023-07-31T13:28:54;23.00;1.00
6496;DHT22;3281;47.658;9.166;2023-07-31T13:31:21;23.00;1.00
6496;DHT22;3281;47.658;9.166;2023-07-31T13:33:49;23.00;1.00
6496;DHT22;3281;47.658;9.166;2023-07-31T13:36:15;23.00;1.00
6496;DHT22;3281;47.658;9.166;2023-07-31T13:38:43;23.10;1.00
6496;DHT22;3281;47.658;9.166;2023-07-31T13:41:10;23.10;1.00
6496;DHT22;3281;47.658;9.166;2023-07-31T13:43:37;23.10;1.00
6496;DHT22;3281;47.658;9.166;2023-07-31T13:46:04;23.30;1.00
6496;DHT22;3281;47.658;9.166;2023-07-31T13:48:32;23.50;1.00
6496;DHT22;3281;47.658;9.166;2023-07-31T13:50:59;23.50;1.00
6496;DHT22;3281;47.658;9.166;2023-07-31T13:53:26;23.60;1.00
6496;DHT22;3281;47.658;9.166;2023-07-31T13:55:54;23.60;1.00
6496;DHT22;3281;47.658;9.166;2023-07-31T13:58:21;23.80;1.00
6496;DHT22;3281;47.658;9.166;2023-07-31T14:00:48;23.80;1.00
6496;DHT22;3281;47.658;9.166;2023-07-31T14:03:15;23.90;1.00
6496;DHT22;3281;47.658;9.166;2023-07-31T14:05:42;23.90;1.00
6496;DHT22;3281;47.658;9.166;2023-07-31T14:08:09;24.10;1.00
6496;DHT22;3281;47.658;9.166;2023-07-31T14:10:35;24.20;1.00
6496;DHT22;3281;47.658;9.166;2023-07-31T14:13:03;24.20;1.00
6496;DHT22;3281;47.658;9.166;2023-07-31T14:15:30;24.20;1.00
6496;DHT22;3281;47.658;9.166;2023-07-31T14:17:57;24.30;1.00
6496;DHT22;3281;47.658;9.166;2023-07-31T14:20:24;24.40;1.00
6496;DHT22;3281;47.658;9.166;2023-07-31T14:22:51;24.50;1.00
6496;DHT22;3281;47.658;9.166;2023-07-31T14:25:17;24.60;1.00
6496;DHT22;3281;47.658;9.166;2023-07-31T14:27:44;24.60;1.00
6496;DHT22;3281;47.658;9.166;2023-07-31T14:30:12;24.70;1.00
6496;DHT22;3281;47.658;9.166;2023-07-31T14:32:39;24.70;1.00
6496;DHT22;3281;47.658;9.166;2023-07-31T14:35:06;24.70;1.00
6496;DHT22;3281;47.658;9.166;2023-07-31T14:37:43;24.50;1.00
6496;DHT22;3281;47.658;9.166;2023-07-31T14:40:12;24.30;1.00
6496;DHT22;3281;47.658;9.166;2023-07-31T14:42:39;24.00;1.00
6496;DHT22;3281;47.658;9.166;2023-07-31T14:45:07;23.90;1.00
6496;DHT22;3281;47.658;9.166;2023-07-31T14:47:36;23.90;1.00
6496;DHT22;3281;47.658;9.166;2023-07-31T14:50:04;23.90;1.00
6496;DHT22;3281;47.658;9.166;2023-07-31T14:52:31;23.90;1.00
6496;DHT22;3281;47.658;9.166;2023-07-31T14:54:58;23.90;1.00
6496;DHT22;3281;47.658;9.166;2023-07-31T14:57:24;23.90;1.00
6496;DHT22;3281;47.658;9.166;2023-07-31T14:59:51;23.80;1.00
6496;DHT22;3281;47.658;9.166;2023-07-31T15:02:18;23.80;1.00
6496;DHT22;3281;47.658;9.166;2023-07-31T15:04:46;23.70;1.00
6496;DHT22;3281;47.658;9.166;2023-07-31T15:07:13;23.70;1.00
6496;DHT22;3281;47.658;9.166;2023-07-31T15:09:40;23.80;1.00
6496;DHT22;3281;47.658;9.166;2023-07-31T15:12:08;23.80;1.00
6496;DHT22;3281;47.658;9.166;2023-07-31T15:14:34;23.80;1.00
6496;DHT22;3281;47.658;9.166;2023-07-31T15:17:01;23.80;1.00
6496;DHT22;3281;47.658;9.166;2023-07-31T15:19:28;23.80;1.00
6496;DHT22;3281;47.658;9.166;2023-07-31T15:21:57;23.70;1.00
6496;DHT22;3281;47.658;9.166;2023-07-31T15:24:23;23.70;1.00
6496;DHT22;3281;47.658;9.166;2023-07-31T15:26:50;23.70;1.00
6496;DHT22;3281;47.658;9.166;2023-07-31T15:29:17;23.70;1.00
6496;DHT22;3281;47.658;9.166;2023-07-31T15:31:45;23.70;1.00
6496;DHT22;3281;47.658;9.166;2023-07-31T15:34:12;23.70;1.00
6496;DHT22;3281;47.658;9.166;2023-07-31T15:36:39;23.70;1.00
6496;DHT22;3281;47.658;9.166;2023-07-31T15:39:07;23.70;1.00
6496;DHT22;3281;47.658;9.166;2023-07-31T15:41:34;23.70;1.00
6496;DHT22;3281;47.658;9.166;2023-07-31T15:44:01;23.70;1.00
6496;DHT22;3281;47.658;9.166;2023-07-31T15:46:28;23.60;1.00
6496;DHT22;3281;47.658;9.166;2023-07-31T15:48:54;23.60;1.00
6496;DHT22;3281;47.658;9.166;2023-07-31T15:51:21;23.60;1.00
6496;DHT22;3281;47.658;9.166;2023-07-31T15:53:48;23.70;1.00
6496;DHT22;3281;47.658;9.166;2023-07-31T15:56:17;23.70;1.00
6496;DHT22;3281;47.658;9.166;2023-07-31T15:58:44;23.70;1.00
6496;DHT22;3281;47.658;9.166;2023-07-31T16:01:10;23.70;1.00
6496;DHT22;3281;47.658;9.166;2023-07-31T16:03:37;23.80;1.00
6496;DHT22;3281;47.658;9.166;2023-07-31T16:06:04;23.80;1.00
6496;DHT22;3281;47.658;9.166;2023-07-31T16:08:30;23.80;1.00
6496;DHT22;3281;47.658;9.166;2023-07-31T16:10:57;23.80;1.00
6496;DHT22;3281;47.658;9.166;2023-07-31T16:13:25;23.80;1.00
6496;DHT22;3281;47.658;9.166;2023-07-31T16:15:52;23.70;1.00
6496;DHT22;3281;47.658;9.166;2023-07-31T16:18:19;23.60;1.00
6496;DHT22;3281;47.658;9.166;2023-07-31T16:20:45;23.60;1.00